»·PEaware :: N5MJ KLAX-KMYF

N5MJ :: KLAX-KMYF

FLIGHT INFORMATION

Flight Status: Arrived
Operator: Privately registered:
United States
More flights under this callsign
Pilot: Josh T. (20631)
Aircraft: SOCATA TBM-900
(TBM9)
More flights by this aircraft type
Origin: KLAX Los Angeles Intl
United States
Destination: KMYF Montgomery
United States
More flights between these airports :: More routes between these airports
Route: +SLI8 SLI SLI171 ALBAS V25 PACIF V208 LAX118 CARDI MZB320 MZB
File this flight plan on PilotEdge
Remarks:
Altitude:
(Current/Filed)
9,000ft
Speed:
(Current/Filed)
315kts
Departed: 11-Nov-19 04:58 PM
Arrived: 11-Nov-19 05:30 PM
Distance/Time
Traveled:
93nm/0:31
Distance/Time
To Go:
Arrived

Flight Plot

Page will automatically refresh every two minutes.

Flight plan parsing failed; only flown route is shown


Map Options




Map Legend


Flown Route
Filed Route
Departure Airport
Arrival Airport
Navaid (VOR, NDB)
Fix

Horizontal Profiles

Position Reports

Time Latitude Longitude Heading Altitude Ground
Speed
11-Nov-19 16:12 33.934101 -118.395332 269 130ft 0kts
11-Nov-19 16:13 33.934101 -118.395332 269 130ft 0kts
11-Nov-19 16:14 33.934101 -118.395333 269 130ft 0kts
11-Nov-19 16:15 33.934101 -118.395333 269 130ft 0kts
11-Nov-19 16:16 33.934101 -118.395333 269 130ft 0kts
11-Nov-19 16:17 33.934101 -118.395333 269 130ft 0kts
11-Nov-19 16:18 33.934101 -118.395333 269 130ft 0kts
11-Nov-19 16:19 33.934101 -118.395333 269 130ft 0kts
11-Nov-19 16:20 33.934101 -118.395333 269 130ft 0kts
11-Nov-19 16:21 33.934101 -118.395333 269 130ft 0kts
11-Nov-19 16:22 33.934101 -118.395333 269 130ft 0kts
11-Nov-19 16:23 33.934101 -118.395333 269 130ft 0kts
11-Nov-19 16:24 33.934101 -118.395333 269 130ft 0kts
11-Nov-19 16:25 33.934101 -118.395333 269 130ft 0kts
11-Nov-19 16:26 33.934101 -118.395333 269 130ft 0kts
11-Nov-19 16:27 33.934101 -118.395333 269 130ft 0kts
11-Nov-19 16:28 33.934101 -118.395333 269 130ft 0kts
11-Nov-19 16:29 33.934101 -118.395333 269 130ft 0kts
11-Nov-19 16:30 33.934101 -118.395333 269 130ft 0kts
11-Nov-19 16:31 33.934101 -118.395333 269 130ft 0kts
11-Nov-19 16:32 33.934101 -118.395333 269 130ft 0kts
11-Nov-19 16:33 33.934101 -118.395333 269 130ft 0kts
11-Nov-19 16:34 33.934101 -118.395333 269 130ft 0kts
11-Nov-19 16:35 33.934101 -118.395333 269 130ft 0kts
11-Nov-19 16:36 33.934101 -118.395333 269 130ft 0kts
11-Nov-19 16:37 33.934101 -118.395333 269 130ft 0kts
11-Nov-19 16:38 33.934101 -118.395333 269 130ft 0kts
11-Nov-19 16:39 33.934101 -118.395333 269 130ft 0kts
11-Nov-19 16:40 33.934101 -118.395333 269 130ft 0kts
11-Nov-19 16:41 33.934101 -118.395333 269 130ft 0kts
11-Nov-19 16:42 33.934101 -118.395333 269 130ft 0kts
11-Nov-19 16:43 33.934101 -118.395333 269 130ft 0kts
11-Nov-19 16:44 33.934101 -118.395333 269 130ft 0kts
11-Nov-19 16:45 33.934101 -118.395333 269 130ft 0kts
11-Nov-19 16:46 33.934101 -118.395333 269 130ft 0kts
11-Nov-19 16:47 33.934101 -118.395333 269 130ft 0kts
11-Nov-19 16:48 33.934101 -118.395333 269 130ft 0kts
11-Nov-19 16:49 33.934538 -118.393865 3 130ft 5kts
11-Nov-19 16:50 33.935242 -118.391401 82 130ft 15kts
11-Nov-19 16:51 33.935866 -118.385296 83 130ft 20kts
11-Nov-19 16:52 33.936502 -118.382768 7 130ft 0kts
11-Nov-19 16:53 33.936502 -118.382768 7 130ft 0kts
11-Nov-19 16:54 33.936502 -118.382768 7 130ft 0kts
11-Nov-19 16:55 33.936502 -118.382768 7 130ft 0kts
11-Nov-19 16:56 33.936802 -118.382792 352 130ft 6kts
11-Nov-19 16:57 33.935321 -118.400705 260 594ft 118kts
11-Nov-19 16:58 33.931039 -118.441436 263 2768ft 128kts
11-Nov-19 16:59 33.906171 -118.470742 214 4794ft 136kts
11-Nov-19 17:00 33.865947 -118.502292 213 5028ft 206kts
11-Nov-19 17:01 33.819449 -118.538476 213 6783ft 181kts
11-Nov-19 17:02 33.775536 -118.537044 162 8964ft 170kts
11-Nov-19 17:03 33.718470 -118.516663 162 9020ft 243kts
11-Nov-19 17:04 33.650856 -118.491940 157 8999ft 258kts
11-Nov-19 17:05 33.613717 -118.421488 118 9010ft 256kts
11-Nov-19 17:06 33.578428 -118.347662 119 9011ft 258kts
11-Nov-19 17:07 33.542387 -118.273218 119 9015ft 258kts
11-Nov-19 17:08 33.506475 -118.199227 119 9019ft 258kts
11-Nov-19 17:09 33.470292 -118.124832 119 9023ft 258kts
11-Nov-19 17:10 33.434084 -118.050536 119 9025ft 258kts
11-Nov-19 17:11 33.397826 -117.976297 119 9019ft 258kts
11-Nov-19 17:12 33.361407 -117.901879 119 9014ft 259kts
11-Nov-19 17:13 33.324953 -117.827538 119 9009ft 259kts
11-Nov-19 17:14 33.288391 -117.753135 118 9008ft 258kts
11-Nov-19 17:15 33.268321 -117.671475 103 9009ft 256kts
11-Nov-19 17:16 33.250147 -117.588764 103 9008ft 257kts
11-Nov-19 17:17 33.218223 -117.515542 136 9022ft 259kts
11-Nov-19 17:18 33.165605 -117.455875 133 9009ft 259kts
11-Nov-19 17:19 33.107726 -117.405768 153 9014ft 261kts
11-Nov-19 17:20 33.041596 -117.369095 153 9012ft 261kts
11-Nov-19 17:21 32.977243 -117.333359 153 8480ft 278kts
11-Nov-19 17:22 32.905345 -117.293498 153 6996ft 274kts
11-Nov-19 17:23 32.862273 -117.224950 121 5452ft 255kts
11-Nov-19 17:24 32.838004 -117.148553 106 3594ft 236kts
11-Nov-19 17:25 32.825765 -117.077235 100 2335ft 178kts
11-Nov-19 17:26 32.798928 -117.052571 216 1560ft 137kts
11-Nov-19 17:27 32.797444 -117.092713 296 1090ft 112kts
11-Nov-19 17:28 32.809885 -117.123661 295 649ft 94kts
11-Nov-19 17:29 32.817850 -117.143898 295 428ft 18kts
11-Nov-19 17:30 32.817288 -117.144996 205 428ft 0kts
11-Nov-19 17:31 32.815988 -117.144904 115 428ft 7kts
11-Nov-19 17:32 32.814426 -117.140925 114 428ft 17kts
11-Nov-19 17:33 32.813704 -117.139744 20 428ft 0kts
11-Nov-19 17:34 32.813704 -117.139744 20 428ft 0kts
11-Nov-19 17:35 32.813704 -117.139744 20 428ft 0kts

Navigation Log

Ident Type
Flight plan parsing failed, navigation log unavailable